Aérodrome :
LOGIN :

S'inscrire | Disclaimer

   EN    FR    IT 

 










Légende :    VFR   VFR Marginal   IFR   IFR Intensif   IFR Très Intensif
Visi : 
Plafond : 
>= 8 km
>= 3000ft
5 à 8 km
1000 à 3000 ft
1500m à 5 km
500 à 1000 ft
800 à 1500m
200 à 500 ft
< 800m
< 200 ft
Symboles :   Orages  Brouillard  Fortes neiges  Fortes précipitations  Vent > 20 kt
SIGMETs :   Divers  Orages  Givrage  Turbulence  Onde Orograph.  Cendres Volcan.







- Altitude de l'aérodrome : 779 ft
- Code IATA : CMF
- Voir les cartes d'approche


LFLB - Chambery / Aix-Les-Bains

DERNIER METAR :
  • 180130Z AUTO 00000KT 7000 NSC 06/06 Q1020 TEMPO 0400 BCFG

METARs EXPIRÉS :
  • 180100Z AUTO 00000KT 9999 4300 NSC 07/06 Q1020 TEMPO 0400 BCFG
  • 180030Z AUTO 17003KT 4000 1100 R18/3000D R36/P5000 BR NSC 06/05 Q1020 TEMPO 0400 BCFG
  • 180000Z AUTO 00000KT 8000 NSC 07/06 Q1020 NOSIG
  • 172330Z AUTO 00000KT 7000 0900 R18/P5000 R36/P5000 BCFG NSC 06/05 Q1020 NOSIG
  • 172300Z AUTO 00000KT CAVOK 07/06 Q1020

TAF AMD TAF LFLB
Valide du 18 à 00h jusqu'au 19 à 00h UTC


180004Z 1800/1824 VRB03KT CAVOK
TEMPO 1800/1807 0400 BCFG
Pas de NOTAMs connus pour ce terrain.



MET'MAP, la Météo Aéronautique d'un coup d'oeil ! - Copyright ORBIFLY Décembre 2007 - Disclaimer

ORBIFLY MET'MAP TEAM :

Programmation & Développement : Alexandra Zaïnal
Conception & Développement : Baudouin d'Aumeries
Co-Programmation & Développement : Marc-Olivier Méhu
Soutien technique & logistique : Manuel Goepfert

Contact : metmap@orbifly.com




SOURCES & CREDITS :

   NOAA